sensor_id;sensor_type;location;lat;lon;timestamp;temperature;humidity
7784;DHT22;19359;51.402;6.778;2023-07-31T00:00:51;16.90;99.90
7784;DHT22;19359;51.402;6.778;2023-07-31T00:08:12;16.80;99.90
7784;DHT22;19359;51.402;6.778;2023-07-31T00:18:01;16.90;99.90
7784;DHT22;19359;51.402;6.778;2023-07-31T00:22:55;16.90;99.90
7784;DHT22;19359;51.402;6.778;2023-07-31T00:27:51;16.90;99.90
7784;DHT22;19359;51.402;6.778;2023-07-31T00:30:17;16.80;99.90
7784;DHT22;19359;51.402;6.778;2023-07-31T00:40:07;16.90;99.90
7784;DHT22;19359;51.402;6.778;2023-07-31T00:52:24;17.00;99.90
7784;DHT22;19359;51.402;6.778;2023-07-31T00:54:50;17.00;99.90
7784;DHT22;19359;51.402;6.778;2023-07-31T01:04:42;17.00;99.90
7784;DHT22;19359;51.402;6.778;2023-07-31T01:09:43;17.00;99.90
7784;DHT22;19359;51.402;6.778;2023-07-31T01:17:19;17.00;99.90
7784;DHT22;19359;51.402;6.778;2023-07-31T01:22:28;17.00;99.90
7784;DHT22;19359;51.402;6.778;2023-07-31T01:25:05;17.00;99.90
7784;DHT22;19359;51.402;6.778;2023-07-31T01:27:44;17.10;99.90
7784;DHT22;19359;51.402;6.778;2023-07-31T01:32:43;17.10;99.90
7784;DHT22;19359;51.402;6.778;2023-07-31T01:40:08;17.10;99.90
7784;DHT22;19359;51.402;6.778;2023-07-31T01:45:05;17.00;99.90
7784;DHT22;19359;51.402;6.778;2023-07-31T01:52:26;17.10;99.90
7784;DHT22;19359;51.402;6.778;2023-07-31T01:54:52;17.10;99.90
7784;DHT22;19359;51.402;6.778;2023-07-31T01:57:19;17.00;99.90
7784;DHT22;19359;51.402;6.778;2023-07-31T02:02:15;17.10;99.50
7784;DHT22;19359;51.402;6.778;2023-07-31T02:04:42;17.00;99.90
7784;DHT22;19359;51.402;6.778;2023-07-31T02:09:36;17.20;99.90
7784;DHT22;19359;51.402;6.778;2023-07-31T02:14:30;17.30;99.90
7784;DHT22;19359;51.402;6.778;2023-07-31T02:16:56;17.00;99.90
7784;DHT22;19359;51.402;6.778;2023-07-31T02:19:24;17.10;81.70
7784;DHT22;19359;51.402;6.778;2023-07-31T02:24:18;17.30;99.30
7784;DHT22;19359;51.402;6.778;2023-07-31T02:26:45;17.10;95.20
7784;DHT22;19359;51.402;6.778;2023-07-31T02:29:12;17.10;99.30
7784;DHT22;19359;51.402;6.778;2023-07-31T02:31:39;17.10;98.00
7784;DHT22;19359;51.402;6.778;2023-07-31T02:34:05;17.00;91.00
7784;DHT22;19359;51.402;6.778;2023-07-31T02:36:33;17.00;98.70
7784;DHT22;19359;51.402;6.778;2023-07-31T02:39:00;17.00;97.80
7784;DHT22;19359;51.402;6.778;2023-07-31T02:43:54;17.10;92.00
7784;DHT22;19359;51.402;6.778;2023-07-31T02:53:47;17.10;62.10
7784;DHT22;19359;51.402;6.778;2023-07-31T02:56:15;17.20;91.30
7784;DHT22;19359;51.402;6.778;2023-07-31T02:58:41;17.20;92.80
7784;DHT22;19359;51.402;6.778;2023-07-31T03:01:08;17.10;94.50
7784;DHT22;19359;51.402;6.778;2023-07-31T03:06:02;17.10;96.90
7784;DHT22;19359;51.402;6.778;2023-07-31T03:08:29;17.10;97.10
7784;DHT22;19359;51.402;6.778;2023-07-31T03:10:58;17.10;77.60
7784;DHT22;19359;51.402;6.778;2023-07-31T03:18:19;17.00;91.00
7784;DHT22;19359;51.402;6.778;2023-07-31T03:23:13;17.10;97.60
7784;DHT22;19359;51.402;6.778;2023-07-31T03:28:10;17.20;96.60
7784;DHT22;19359;51.402;6.778;2023-07-31T03:33:04;17.10;96.30
7784;DHT22;19359;51.402;6.778;2023-07-31T03:40:25;17.30;95.10
7784;DHT22;19359;51.402;6.778;2023-07-31T03:42:51;17.30;90.70
7784;DHT22;19359;51.402;6.778;2023-07-31T03:45:19;17.30;60.00
7784;DHT22;19359;51.402;6.778;2023-07-31T03:50:13;17.40;87.60
7784;DHT22;19359;51.402;6.778;2023-07-31T03:55:08;17.20;73.80
7784;DHT22;19359;51.402;6.778;2023-07-31T03:57:35;17.40;85.10
7784;DHT22;19359;51.402;6.778;2023-07-31T04:02:30;17.40;91.10
7784;DHT22;19359;51.402;6.778;2023-07-31T04:04:57;17.40;84.30
7784;DHT22;19359;51.402;6.778;2023-07-31T04:07:24;17.40;90.70
7784;DHT22;19359;51.402;6.778;2023-07-31T04:09:50;17.40;91.00
7784;DHT22;19359;51.402;6.778;2023-07-31T04:14:44;17.50;79.60
7784;DHT22;19359;51.402;6.778;2023-07-31T04:19:40;17.50;86.60
7784;DHT22;19359;51.402;6.778;2023-07-31T04:27:00;17.40;65.40
7784;DHT22;19359;51.402;6.778;2023-07-31T04:31:54;17.40;89.80
7784;DHT22;19359;51.402;6.778;2023-07-31T04:36:49;17.40;92.10
7784;DHT22;19359;51.402;6.778;2023-07-31T04:39:16;17.40;92.00
7784;DHT22;19359;51.402;6.778;2023-07-31T04:44:10;17.30;94.30
7784;DHT22;19359;51.402;6.778;2023-07-31T04:46:37;17.20;68.80
7784;DHT22;19359;51.402;6.778;2023-07-31T04:49:04;17.50;92.50
7784;DHT22;19359;51.402;6.778;2023-07-31T04:56:26;17.40;94.30
7784;DHT22;19359;51.402;6.778;2023-07-31T05:08:41;17.70;80.00
7784;DHT22;19359;51.402;6.778;2023-07-31T05:18:31;17.50;96.40
7784;DHT22;19359;51.402;6.778;2023-07-31T05:23:25;17.60;95.80
7784;DHT22;19359;51.402;6.778;2023-07-31T05:35:42;17.60;97.40
7784;DHT22;19359;51.402;6.778;2023-07-31T05:45:35;17.60;98.80
7784;DHT22;19359;51.402;6.778;2023-07-31T05:48:02;17.50;75.20
7784;DHT22;19359;51.402;6.778;2023-07-31T05:50:30;17.60;71.20
7784;DHT22;19359;51.402;6.778;2023-07-31T05:55:24;17.60;91.60
7784;DHT22;19359;51.402;6.778;2023-07-31T06:02:49;17.60;63.60
7784;DHT22;19359;51.402;6.778;2023-07-31T06:05:15;17.70;91.80
7784;DHT22;19359;51.402;6.778;2023-07-31T06:12:36;17.60;91.50
7784;DHT22;19359;51.402;6.778;2023-07-31T06:20:00;17.60;95.80
7784;DHT22;19359;51.402;6.778;2023-07-31T06:24:53;17.60;99.90
7784;DHT22;19359;51.402;6.778;2023-07-31T06:27:20;17.50;99.90
7784;DHT22;19359;51.402;6.778;2023-07-31T06:32:14;17.50;99.90
7784;DHT22;19359;51.402;6.778;2023-07-31T06:37:09;17.50;99.90
7784;DHT22;19359;51.402;6.778;2023-07-31T06:44:31;17.40;99.90
7784;DHT22;19359;51.402;6.778;2023-07-31T06:46:58;17.40;99.90
7784;DHT22;19359;51.402;6.778;2023-07-31T06:54:20;17.40;99.90
7784;DHT22;19359;51.402;6.778;2023-07-31T06:56:47;17.40;99.90
7784;DHT22;19359;51.402;6.778;2023-07-31T07:04:08;17.40;99.90
7784;DHT22;19359;51.402;6.778;2023-07-31T07:11:31;17.40;99.90
7784;DHT22;19359;51.402;6.778;2023-07-31T07:13:58;17.40;99.90
7784;DHT22;19359;51.402;6.778;2023-07-31T07:21:19;17.20;99.90
7784;DHT22;19359;51.402;6.778;2023-07-31T07:23:46;17.20;99.90
7784;DHT22;19359;51.402;6.778;2023-07-31T07:31:08;17.20;99.90
7784;DHT22;19359;51.402;6.778;2023-07-31T07:33:35;17.10;99.90
7784;DHT22;19359;51.402;6.778;2023-07-31T07:40:58;17.30;99.90
7784;DHT22;19359;51.402;6.778;2023-07-31T07:50:49;17.10;99.90
7784;DHT22;19359;51.402;6.778;2023-07-31T07:58:10;17.00;99.90
7784;DHT22;19359;51.402;6.778;2023-07-31T08:15:21;17.20;99.90
7784;DHT22;19359;51.402;6.778;2023-07-31T08:17:48;17.00;99.90
7784;DHT22;19359;51.402;6.778;2023-07-31T08:22:43;17.20;99.90
7784;DHT22;19359;51.402;6.778;2023-07-31T08:27:37;17.30;99.90
7784;DHT22;19359;51.402;6.778;2023-07-31T08:30:05;16.90;99.90
7784;DHT22;19359;51.402;6.778;2023-07-31T08:32:32;17.10;99.90
7784;DHT22;19359;51.402;6.778;2023-07-31T08:39:54;17.10;99.90
7784;DHT22;19359;51.402;6.778;2023-07-31T08:44:48;17.00;99.90
7784;DHT22;19359;51.402;6.778;2023-07-31T08:49:43;17.20;99.90
7784;DHT22;19359;51.402;6.778;2023-07-31T08:54:41;17.20;99.90
7784;DHT22;19359;51.402;6.778;2023-07-31T09:07:01;17.10;99.90
7784;DHT22;19359;51.402;6.778;2023-07-31T09:09:29;17.10;1.00
7784;DHT22;19359;51.402;6.778;2023-07-31T09:14:26;16.90;99.90
7784;DHT22;19359;51.402;6.778;2023-07-31T09:19:28;17.10;99.90
7784;DHT22;19359;51.402;6.778;2023-07-31T09:31:50;17.30;99.90
7784;DHT22;19359;51.402;6.778;2023-07-31T09:39:13;17.30;99.90
7784;DHT22;19359;51.402;6.778;2023-07-31T09:44:10;17.50;99.90
7784;DHT22;19359;51.402;6.778;2023-07-31T09:46:38;17.40;99.90
7784;DHT22;19359;51.402;6.778;2023-07-31T09:49:09;17.60;99.90
7784;DHT22;19359;51.402;6.778;2023-07-31T09:51:37;17.40;99.90
7784;DHT22;19359;51.402;6.778;2023-07-31T09:56:40;17.30;58.30
7784;DHT22;19359;51.402;6.778;2023-07-31T10:04:04;17.40;99.90
7784;DHT22;19359;51.402;6.778;2023-07-31T10:06:33;17.40;99.90
7784;DHT22;19359;51.402;6.778;2023-07-31T10:09:01;17.40;99.90
7784;DHT22;19359;51.402;6.778;2023-07-31T10:11:30;17.40;99.90
7784;DHT22;19359;51.402;6.778;2023-07-31T10:14:01;17.40;99.90
7784;DHT22;19359;51.402;6.778;2023-07-31T10:16:30;17.50;99.90
7784;DHT22;19359;51.402;6.778;2023-07-31T10:21:25;17.30;99.90
7784;DHT22;19359;51.402;6.778;2023-07-31T10:23:52;17.60;91.10
7784;DHT22;19359;51.402;6.778;2023-07-31T10:28:48;17.60;1.00
7784;DHT22;19359;51.402;6.778;2023-07-31T10:31:17;17.60;1.00
7784;DHT22;19359;51.402;6.778;2023-07-31T10:36:13;17.60;99.90
7784;DHT22;19359;51.402;6.778;2023-07-31T10:38:41;17.80;1.00
7784;DHT22;19359;51.402;6.778;2023-07-31T10:46:07;18.00;99.90
7784;DHT22;19359;51.402;6.778;2023-07-31T10:51:07;18.10;1.00
7784;DHT22;19359;51.402;6.778;2023-07-31T10:58:32;18.30;1.00
7784;DHT22;19359;51.402;6.778;2023-07-31T11:03:40;18.30;99.90
7784;DHT22;19359;51.402;6.778;2023-07-31T11:08:36;18.30;99.90
7784;DHT22;19359;51.402;6.778;2023-07-31T11:11:10;18.30;99.90
7784;DHT22;19359;51.402;6.778;2023-07-31T11:16:08;18.40;99.90
7784;DHT22;19359;51.402;6.778;2023-07-31T11:23:30;18.50;99.90
7784;DHT22;19359;51.402;6.778;2023-07-31T11:25:59;18.60;99.90
7784;DHT22;19359;51.402;6.778;2023-07-31T11:30:59;18.70;99.90
7784;DHT22;19359;51.402;6.778;2023-07-31T11:35:53;18.30;99.90
7784;DHT22;19359;51.402;6.778;2023-07-31T11:40:51;18.60;99.90
7784;DHT22;19359;51.402;6.778;2023-07-31T11:48:19;18.60;99.90
7784;DHT22;19359;51.402;6.778;2023-07-31T11:55:44;18.20;99.90
7784;DHT22;19359;51.402;6.778;2023-07-31T12:00:38;18.20;99.90
7784;DHT22;19359;51.402;6.778;2023-07-31T12:03:06;18.20;99.90
7784;DHT22;19359;51.402;6.778;2023-07-31T12:12:57;18.10;99.90
7784;DHT22;19359;51.402;6.778;2023-07-31T12:20:26;18.20;99.90
7784;DHT22;19359;51.402;6.778;2023-07-31T12:22:56;18.30;99.90
7784;DHT22;19359;51.402;6.778;2023-07-31T12:27:50;18.30;99.90
7784;DHT22;19359;51.402;6.778;2023-07-31T12:30:28;18.40;97.90
7784;DHT22;19359;51.402;6.778;2023-07-31T12:37:50;18.70;99.90
7784;DHT22;19359;51.402;6.778;2023-07-31T12:45:11;18.80;99.90
7784;DHT22;19359;51.402;6.778;2023-07-31T12:47:38;18.60;99.90
7784;DHT22;19359;51.402;6.778;2023-07-31T12:50:05;18.60;94.00
7784;DHT22;19359;51.402;6.778;2023-07-31T12:55:01;18.40;99.90
7784;DHT22;19359;51.402;6.778;2023-07-31T13:04:49;18.50;99.90
7784;DHT22;19359;51.402;6.778;2023-07-31T13:07:16;18.60;99.90
7784;DHT22;19359;51.402;6.778;2023-07-31T13:14:39;18.90;99.90
7784;DHT22;19359;51.402;6.778;2023-07-31T13:17:05;19.00;99.90
7784;DHT22;19359;51.402;6.778;2023-07-31T13:26:55;19.10;97.60
7784;DHT22;19359;51.402;6.778;2023-07-31T13:31:51;19.00;99.90
7784;DHT22;19359;51.402;6.778;2023-07-31T13:34:18;18.20;72.50
7784;DHT22;19359;51.402;6.778;2023-07-31T13:39:12;19.20;96.60
7784;DHT22;19359;51.402;6.778;2023-07-31T13:41:39;19.20;97.50
7784;DHT22;19359;51.402;6.778;2023-07-31T13:44:06;19.10;91.40
7784;DHT22;19359;51.402;6.778;2023-07-31T13:46:34;19.30;74.60
7784;DHT22;19359;51.402;6.778;2023-07-31T13:51:28;19.30;94.20
7784;DHT22;19359;51.402;6.778;2023-07-31T13:56:22;19.60;82.40
7784;DHT22;19359;51.402;6.778;2023-07-31T14:03:44;20.00;46.80
7784;DHT22;19359;51.402;6.778;2023-07-31T14:23:22;19.80;65.50
7784;DHT22;19359;51.402;6.778;2023-07-31T14:33:10;19.40;70.30
7784;DHT22;19359;51.402;6.778;2023-07-31T14:43:00;19.50;68.10
7784;DHT22;19359;51.402;6.778;2023-07-31T14:45:26;19.20;89.90
7784;DHT22;19359;51.402;6.778;2023-07-31T14:47:53;19.30;91.10
7784;DHT22;19359;51.402;6.778;2023-07-31T14:52:48;19.00;96.20
7784;DHT22;19359;51.402;6.778;2023-07-31T15:05:07;19.00;72.60
7784;DHT22;19359;51.402;6.778;2023-07-31T15:07:34;19.00;70.90
7784;DHT22;19359;51.402;6.778;2023-07-31T15:10:02;19.00;63.50
7784;DHT22;19359;51.402;6.778;2023-07-31T15:12:30;19.00;91.60
7784;DHT22;19359;51.402;6.778;2023-07-31T15:22:19;19.10;59.00
7784;DHT22;19359;51.402;6.778;2023-07-31T15:24:45;19.20;58.60
7784;DHT22;19359;51.402;6.778;2023-07-31T15:29:43;19.40;53.70
7784;DHT22;19359;51.402;6.778;2023-07-31T15:34:36;19.20;48.50
7784;DHT22;19359;51.402;6.778;2023-07-31T15:37:03;19.10;47.60
7784;DHT22;19359;51.402;6.778;2023-07-31T15:39:30;19.50;41.50
7784;DHT22;19359;51.402;6.778;2023-07-31T15:54:14;19.40;43.40
7784;DHT22;19359;51.402;6.778;2023-07-31T15:59:08;19.00;61.30
7784;DHT22;19359;51.402;6.778;2023-07-31T16:01:35;19.10;72.50
7784;DHT22;19359;51.402;6.778;2023-07-31T16:04:03;18.80;84.90
7784;DHT22;19359;51.402;6.778;2023-07-31T16:06:30;18.70;93.80
7784;DHT22;19359;51.402;6.778;2023-07-31T16:16:18;18.50;99.90
7784;DHT22;19359;51.402;6.778;2023-07-31T16:21:14;18.30;95.50
7784;DHT22;19359;51.402;6.778;2023-07-31T16:33:29;18.40;99.90
7784;DHT22;19359;51.402;6.778;2023-07-31T16:38:26;18.20;99.90
7784;DHT22;19359;51.402;6.778;2023-07-31T16:40:53;18.30;99.90
7784;DHT22;19359;51.402;6.778;2023-07-31T16:43:20;18.30;99.90
7784;DHT22;19359;51.402;6.778;2023-07-31T16:45:47;18.20;99.90
7784;DHT22;19359;51.402;6.778;2023-07-31T16:50:42;18.20;99.90
7784;DHT22;19359;51.402;6.778;2023-07-31T16:53:08;18.30;99.90
7784;DHT22;19359;51.402;6.778;2023-07-31T16:55:36;18.30;99.90
7784;DHT22;19359;51.402;6.778;2023-07-31T16:58:03;18.30;99.90
7784;DHT22;19359;51.402;6.778;2023-07-31T17:00:30;18.20;99.90
7784;DHT22;19359;51.402;6.778;2023-07-31T17:02:57;18.50;99.90
7784;DHT22;19359;51.402;6.778;2023-07-31T17:05:24;18.00;99.90
7784;DHT22;19359;51.402;6.778;2023-07-31T17:07:51;18.30;99.90
7784;DHT22;19359;51.402;6.778;2023-07-31T17:12:46;18.00;99.90
7784;DHT22;19359;51.402;6.778;2023-07-31T17:15:13;18.10;99.90
7784;DHT22;19359;51.402;6.778;2023-07-31T17:17:40;18.10;99.90
7784;DHT22;19359;51.402;6.778;2023-07-31T17:20:08;18.60;99.90
7784;DHT22;19359;51.402;6.778;2023-07-31T17:22:34;17.90;99.90
7784;DHT22;19359;51.402;6.778;2023-07-31T17:25:01;18.00;99.90
7784;DHT22;19359;51.402;6.778;2023-07-31T17:27:28;17.90;99.90
7784;DHT22;19359;51.402;6.778;2023-07-31T17:29:56;17.90;99.90
7784;DHT22;19359;51.402;6.778;2023-07-31T17:34:51;17.90;99.90
7784;DHT22;19359;51.402;6.778;2023-07-31T17:37:18;17.80;99.90
7784;DHT22;19359;51.402;6.778;2023-07-31T17:39:45;17.90;99.90
7784;DHT22;19359;51.402;6.778;2023-07-31T17:44:39;17.70;99.90
7784;DHT22;19359;51.402;6.778;2023-07-31T17:47:07;17.70;99.90
7784;DHT22;19359;51.402;6.778;2023-07-31T17:49:34;17.60;99.90
7784;DHT22;19359;51.402;6.778;2023-07-31T17:52:02;17.60;99.90
7784;DHT22;19359;51.402;6.778;2023-07-31T17:54:29;17.70;99.90
7784;DHT22;19359;51.402;6.778;2023-07-31T17:56:55;17.60;99.90
7784;DHT22;19359;51.402;6.778;2023-07-31T17:59:22;17.50;99.90
7784;DHT22;19359;51.402;6.778;2023-07-31T18:04:17;17.50;99.90
7784;DHT22;19359;51.402;6.778;2023-07-31T18:06:44;17.70;99.90
7784;DHT22;19359;51.402;6.778;2023-07-31T18:09:11;17.30;99.90
7784;DHT22;19359;51.402;6.778;2023-07-31T18:21:28;17.40;99.90
7784;DHT22;19359;51.402;6.778;2023-07-31T18:26:25;17.40;99.90
7784;DHT22;19359;51.402;6.778;2023-07-31T18:33:46;17.50;99.90
7784;DHT22;19359;51.402;6.778;2023-07-31T18:43:36;17.50;99.90
7784;DHT22;19359;51.402;6.778;2023-07-31T18:46:03;17.50;99.90
7784;DHT22;19359;51.402;6.778;2023-07-31T18:48:30;17.50;99.90
7784;DHT22;19359;51.402;6.778;2023-07-31T18:55:52;17.40;99.90
7784;DHT22;19359;51.402;6.778;2023-07-31T19:03:13;17.50;99.90
7784;DHT22;19359;51.402;6.778;2023-07-31T19:10:36;17.40;99.90
7784;DHT22;19359;51.402;6.778;2023-07-31T19:13:04;17.30;99.90
7784;DHT22;19359;51.402;6.778;2023-07-31T19:15:32;17.40;99.90
7784;DHT22;19359;51.402;6.778;2023-07-31T19:20:26;17.30;99.90
7784;DHT22;19359;51.402;6.778;2023-07-31T19:25:20;17.30;99.90
7784;DHT22;19359;51.402;6.778;2023-07-31T19:35:12;17.30;99.90
7784;DHT22;19359;51.402;6.778;2023-07-31T19:37:39;17.30;99.90
7784;DHT22;19359;51.402;6.778;2023-07-31T19:40:06;17.20;99.90
7784;DHT22;19359;51.402;6.778;2023-07-31T19:42:33;17.50;99.90
7784;DHT22;19359;51.402;6.778;2023-07-31T19:45:01;17.40;99.90
7784;DHT22;19359;51.402;6.778;2023-07-31T19:47:29;17.40;99.90
7784;DHT22;19359;51.402;6.778;2023-07-31T19:49:56;17.50;99.90
7784;DHT22;19359;51.402;6.778;2023-07-31T19:57:17;17.20;99.90
7784;DHT22;19359;51.402;6.778;2023-07-31T19:59:44;17.40;99.90
7784;DHT22;19359;51.402;6.778;2023-07-31T20:04:40;17.40;99.90
7784;DHT22;19359;51.402;6.778;2023-07-31T20:09:34;17.40;99.90
7784;DHT22;19359;51.402;6.778;2023-07-31T20:16:55;17.50;99.90
7784;DHT22;19359;51.402;6.778;2023-07-31T20:19:22;17.60;99.90
7784;DHT22;19359;51.402;6.778;2023-07-31T20:24:17;17.50;99.90
7784;DHT22;19359;51.402;6.778;2023-07-31T20:26:44;17.60;99.90
7784;DHT22;19359;51.402;6.778;2023-07-31T20:29:11;17.60;99.90
7784;DHT22;19359;51.402;6.778;2023-07-31T20:31:38;17.60;99.90
7784;DHT22;19359;51.402;6.778;2023-07-31T20:34:05;17.60;99.90
7784;DHT22;19359;51.402;6.778;2023-07-31T20:36:33;17.60;99.90
7784;DHT22;19359;51.402;6.778;2023-07-31T20:39:01;17.50;99.90
7784;DHT22;19359;51.402;6.778;2023-07-31T20:46:22;17.70;99.90
7784;DHT22;19359;51.402;6.778;2023-07-31T20:51:16;17.60;99.90
7784;DHT22;19359;51.402;6.778;2023-07-31T20:58:38;17.60;99.90
7784;DHT22;19359;51.402;6.778;2023-07-31T21:01:05;17.50;99.90
7784;DHT22;19359;51.402;6.778;2023-07-31T21:03:32;17.60;99.90
7784;DHT22;19359;51.402;6.778;2023-07-31T21:05:59;17.70;99.90
7784;DHT22;19359;51.402;6.778;2023-07-31T21:08:26;17.70;99.90
7784;DHT22;19359;51.402;6.778;2023-07-31T21:10:53;17.60;99.90
7784;DHT22;19359;51.402;6.778;2023-07-31T21:18:17;17.60;99.90
7784;DHT22;19359;51.402;6.778;2023-07-31T21:20:46;17.60;99.90
7784;DHT22;19359;51.402;6.778;2023-07-31T21:23:14;17.70;99.90
7784;DHT22;19359;51.402;6.778;2023-07-31T21:25:41;17.60;99.90
7784;DHT22;19359;51.402;6.778;2023-07-31T21:30:38;17.50;99.90
7784;DHT22;19359;51.402;6.778;2023-07-31T21:35:33;17.80;99.90
7784;DHT22;19359;51.402;6.778;2023-07-31T21:40:26;17.20;99.90
7784;DHT22;19359;51.402;6.778;2023-07-31T21:45:22;17.40;99.90
7784;DHT22;19359;51.402;6.778;2023-07-31T21:47:50;17.50;99.90
7784;DHT22;19359;51.402;6.778;2023-07-31T21:50:17;17.50;99.90
7784;DHT22;19359;51.402;6.778;2023-07-31T21:55:11;17.40;99.90
7784;DHT22;19359;51.402;6.778;2023-07-31T21:57:38;17.20;99.90
7784;DHT22;19359;51.402;6.778;2023-07-31T22:00:06;17.30;99.90
7784;DHT22;19359;51.402;6.778;2023-07-31T22:02:33;17.40;99.90
7784;DHT22;19359;51.402;6.778;2023-07-31T22:05:02;17.50;99.90
7784;DHT22;19359;51.402;6.778;2023-07-31T22:09:56;17.60;99.90
7784;DHT22;19359;51.402;6.778;2023-07-31T22:12:23;17.50;99.90
7784;DHT22;19359;51.402;6.778;2023-07-31T22:14:49;17.40;99.90
7784;DHT22;19359;51.402;6.778;2023-07-31T22:19:43;17.20;99.90
7784;DHT22;19359;51.402;6.778;2023-07-31T22:24:38;17.40;99.90
7784;DHT22;19359;51.402;6.778;2023-07-31T22:27:05;17.40;99.90
7784;DHT22;19359;51.402;6.778;2023-07-31T22:29:32;17.40;99.90
7784;DHT22;19359;51.402;6.778;2023-07-31T22:36:53;17.60;99.90
7784;DHT22;19359;51.402;6.778;2023-07-31T22:39:21;17.60;99.90
7784;DHT22;19359;51.402;6.778;2023-07-31T22:41:48;17.50;99.90
7784;DHT22;19359;51.402;6.778;2023-07-31T22:46:42;17.60;99.90
7784;DHT22;19359;51.402;6.778;2023-07-31T22:49:08;17.60;99.90
7784;DHT22;19359;51.402;6.778;2023-07-31T22:51:35;17.50;99.90
7784;DHT22;19359;51.402;6.778;2023-07-31T22:54:02;17.50;99.90
7784;DHT22;19359;51.402;6.778;2023-07-31T22:56:30;17.50;99.90
7784;DHT22;19359;51.402;6.778;2023-07-31T22:58:57;17.60;99.90
7784;DHT22;19359;51.402;6.778;2023-07-31T23:06:19;17.40;99.90
7784;DHT22;19359;51.402;6.778;2023-07-31T23:11:13;17.30;99.90
7784;DHT22;19359;51.402;6.778;2023-07-31T23:13:41;17.40;99.90
7784;DHT22;19359;51.402;6.778;2023-07-31T23:21:02;17.40;99.90
7784;DHT22;19359;51.402;6.778;2023-07-31T23:25:56;17.50;99.90
7784;DHT22;19359;51.402;6.778;2023-07-31T23:30:51;17.50;99.90
7784;DHT22;19359;51.402;6.778;2023-07-31T23:33:18;17.50;99.90
7784;DHT22;19359;51.402;6.778;2023-07-31T23:35:45;17.50;99.90
7784;DHT22;19359;51.402;6.778;2023-07-31T23:38:12;17.50;99.90
7784;DHT22;19359;51.402;6.778;2023-07-31T23:40:39;17.40;99.90
7784;DHT22;19359;51.402;6.778;2023-07-31T23:45:33;17.40;99.90
7784;DHT22;19359;51.402;6.778;2023-07-31T23:48:01;17.40;99.90
7784;DHT22;19359;51.402;6.778;2023-07-31T23:50:28;17.40;99.90
7784;DHT22;19359;51.402;6.778;2023-07-31T23:55:23;17.50;99.90
7784;DHT22;19359;51.402;6.778;2023-07-31T23:57:50;17.40;99.90
